sensor_id;sensor_type;location;lat;lon;timestamp;P1;durP1;ratioP1;P2;durP2;ratioP2
1847;SDS011;924;52.448;13.356;2022-07-23T00:00:12;7.00;;;6.40;;
1847;SDS011;924;52.448;13.356;2022-07-23T00:02:38;5.93;;;5.33;;
1847;SDS011;924;52.448;13.356;2022-07-23T00:05:03;6.57;;;5.97;;
1847;SDS011;924;52.448;13.356;2022-07-23T00:07:28;7.43;;;6.07;;
1847;SDS011;924;52.448;13.356;2022-07-23T00:09:54;6.20;;;5.70;;
1847;SDS011;924;52.448;13.356;2022-07-23T00:12:19;6.43;;;5.70;;
1847;SDS011;924;52.448;13.356;2022-07-23T00:14:45;6.40;;;5.80;;
1847;SDS011;924;52.448;13.356;2022-07-23T00:17:10;6.33;;;5.83;;
1847;SDS011;924;52.448;13.356;2022-07-23T00:19:35;6.63;;;6.03;;
1847;SDS011;924;52.448;13.356;2022-07-23T00:22:00;6.83;;;6.13;;
1847;SDS011;924;52.448;13.356;2022-07-23T00:24:26;6.87;;;6.27;;
1847;SDS011;924;52.448;13.356;2022-07-23T00:26:51;7.23;;;6.73;;
1847;SDS011;924;52.448;13.356;2022-07-23T00:29:16;7.23;;;6.50;;
1847;SDS011;924;52.448;13.356;2022-07-23T00:31:41;6.87;;;6.33;;
1847;SDS011;924;52.448;13.356;2022-07-23T00:34:06;6.80;;;6.10;;
1847;SDS011;924;52.448;13.356;2022-07-23T00:36:32;6.53;;;5.93;;
1847;SDS011;924;52.448;13.356;2022-07-23T00:38:57;8.10;;;7.40;;
1847;SDS011;924;52.448;13.356;2022-07-23T00:41:22;6.27;;;5.77;;
1847;SDS011;924;52.448;13.356;2022-07-23T00:43:47;7.47;;;6.77;;
1847;SDS011;924;52.448;13.356;2022-07-23T00:46:13;7.13;;;6.53;;
1847;SDS011;924;52.448;13.356;2022-07-23T00:48:38;7.07;;;5.57;;
1847;SDS011;924;52.448;13.356;2022-07-23T00:51:04;7.10;;;6.50;;
1847;SDS011;924;52.448;13.356;2022-07-23T00:53:30;8.07;;;6.17;;
1847;SDS011;924;52.448;13.356;2022-07-23T00:55:56;5.80;;;5.33;;
1847;SDS011;924;52.448;13.356;2022-07-23T00:58:23;9.80;;;7.40;;
1847;SDS011;924;52.448;13.356;2022-07-23T01:00:48;6.40;;;5.83;;
1847;SDS011;924;52.448;13.356;2022-07-23T01:03:14;7.47;;;6.77;;
1847;SDS011;924;52.448;13.356;2022-07-23T01:05:39;6.53;;;5.93;;
1847;SDS011;924;52.448;13.356;2022-07-23T01:08:05;6.50;;;6.00;;
1847;SDS011;924;52.448;13.356;2022-07-23T01:10:30;6.90;;;6.40;;
1847;SDS011;924;52.448;13.356;2022-07-23T01:12:56;5.50;;;4.90;;
1847;SDS011;924;52.448;13.356;2022-07-23T01:15:21;6.70;;;6.10;;
1847;SDS011;924;52.448;13.356;2022-07-23T01:17:47;7.13;;;6.57;;
1847;SDS011;924;52.448;13.356;2022-07-23T01:20:12;7.60;;;6.90;;
1847;SDS011;924;52.448;13.356;2022-07-23T01:22:37;6.40;;;5.90;;
1847;SDS011;924;52.448;13.356;2022-07-23T19:27:36;2.47;;;2.27;;
1847;SDS011;924;52.448;13.356;2022-07-23T19:30:03;1.63;;;1.50;;
1847;SDS011;924;52.448;13.356;2022-07-23T19:32:28;1.57;;;1.47;;
1847;SDS011;924;52.448;13.356;2022-07-23T19:34:53;2.20;;;1.70;;
1847;SDS011;924;52.448;13.356;2022-07-23T19:37:19;1.70;;;1.40;;
1847;SDS011;924;52.448;13.356;2022-07-23T19:39:45;1.57;;;1.47;;
1847;SDS011;924;52.448;13.356;2022-07-23T19:42:11;2.07;;;1.50;;
1847;SDS011;924;52.448;13.356;2022-07-23T19:44:36;1.63;;;1.27;;
1847;SDS011;924;52.448;13.356;2022-07-23T19:47:01;2.40;;;1.43;;
1847;SDS011;924;52.448;13.356;2022-07-23T19:49:27;1.53;;;1.20;;
1847;SDS011;924;52.448;13.356;2022-07-23T19:51:52;2.90;;;1.87;;
1847;SDS011;924;52.448;13.356;2022-07-23T19:54:18;1.50;;;1.40;;
1847;SDS011;924;52.448;13.356;2022-07-23T19:56:43;1.97;;;1.40;;
1847;SDS011;924;52.448;13.356;2022-07-23T19:59:08;1.23;;;1.13;;
1847;SDS011;924;52.448;13.356;2022-07-23T20:01:34;1.70;;;1.57;;
1847;SDS011;924;52.448;13.356;2022-07-23T20:03:59;1.90;;;1.47;;
1847;SDS011;924;52.448;13.356;2022-07-23T20:06:25;3.27;;;1.50;;
1847;SDS011;924;52.448;13.356;2022-07-23T20:08:50;1.43;;;1.33;;
1847;SDS011;924;52.448;13.356;2022-07-23T20:11:15;1.40;;;1.23;;
1847;SDS011;924;52.448;13.356;2022-07-23T20:13:41;1.80;;;1.23;;
1847;SDS011;924;52.448;13.356;2022-07-23T20:16:06;1.40;;;1.30;;
1847;SDS011;924;52.448;13.356;2022-07-23T20:18:31;2.23;;;1.60;;
1847;SDS011;924;52.448;13.356;2022-07-23T20:20:57;1.30;;;1.20;;
1847;SDS011;924;52.448;13.356;2022-07-23T20:23:22;1.30;;;1.10;;
1847;SDS011;924;52.448;13.356;2022-07-23T20:25:47;2.97;;;2.20;;
1847;SDS011;924;52.448;13.356;2022-07-23T20:28:13;3.60;;;1.60;;
1847;SDS011;924;52.448;13.356;2022-07-23T20:30:38;1.63;;;1.10;;
1847;SDS011;924;52.448;13.356;2022-07-23T20:33:05;1.30;;;1.20;;
1847;SDS011;924;52.448;13.356;2022-07-23T20:35:31;1.37;;;1.20;;
1847;SDS011;924;52.448;13.356;2022-07-23T20:37:56;1.50;;;1.17;;
1847;SDS011;924;52.448;13.356;2022-07-23T20:40:21;1.20;;;1.10;;
1847;SDS011;924;52.448;13.356;2022-07-23T20:42:47;1.73;;;1.10;;
1847;SDS011;924;52.448;13.356;2022-07-23T20:45:13;1.27;;;0.97;;
1847;SDS011;924;52.448;13.356;2022-07-23T20:47:38;1.33;;;1.20;;
1847;SDS011;924;52.448;13.356;2022-07-23T20:50:05;2.00;;;1.53;;
1847;SDS011;924;52.448;13.356;2022-07-23T20:52:30;2.33;;;1.30;;
1847;SDS011;924;52.448;13.356;2022-07-23T20:54:55;1.83;;;1.70;;
1847;SDS011;924;52.448;13.356;2022-07-23T20:57:22;1.40;;;1.30;;
1847;SDS011;924;52.448;13.356;2022-07-23T20:59:48;1.47;;;1.37;;
1847;SDS011;924;52.448;13.356;2022-07-23T21:02:13;2.13;;;1.50;;
1847;SDS011;924;52.448;13.356;2022-07-23T21:04:38;1.60;;;1.23;;
1847;SDS011;924;52.448;13.356;2022-07-23T21:07:03;3.63;;;1.43;;
1847;SDS011;924;52.448;13.356;2022-07-23T21:09:29;1.90;;;1.50;;
1847;SDS011;924;52.448;13.356;2022-07-23T21:11:54;1.90;;;1.60;;
1847;SDS011;924;52.448;13.356;2022-07-23T21:14:19;2.13;;;1.47;;
1847;SDS011;924;52.448;13.356;2022-07-23T21:16:44;2.20;;;1.50;;
1847;SDS011;924;52.448;13.356;2022-07-23T21:19:10;1.63;;;1.40;;
1847;SDS011;924;52.448;13.356;2022-07-23T21:21:35;1.60;;;1.30;;
1847;SDS011;924;52.448;13.356;2022-07-23T21:24:00;1.73;;;1.33;;
1847;SDS011;924;52.448;13.356;2022-07-23T21:26:25;1.63;;;1.40;;
1847;SDS011;924;52.448;13.356;2022-07-23T21:28:51;1.90;;;1.70;;
1847;SDS011;924;52.448;13.356;2022-07-23T21:31:16;1.57;;;1.20;;
1847;SDS011;924;52.448;13.356;2022-07-23T21:33:41;1.50;;;1.40;;
1847;SDS011;924;52.448;13.356;2022-07-23T21:36:08;1.50;;;1.37;;
1847;SDS011;924;52.448;13.356;2022-07-23T21:38:33;1.70;;;1.50;;
1847;SDS011;924;52.448;13.356;2022-07-23T21:40:58;1.40;;;1.20;;
1847;SDS011;924;52.448;13.356;2022-07-23T21:43:24;1.90;;;1.23;;
1847;SDS011;924;52.448;13.356;2022-07-23T21:45:49;3.10;;;1.60;;
1847;SDS011;924;52.448;13.356;2022-07-23T21:48:15;1.80;;;1.30;;
1847;SDS011;924;52.448;13.356;2022-07-23T21:50:40;3.20;;;1.40;;
1847;SDS011;924;52.448;13.356;2022-07-23T21:53:05;2.20;;;1.70;;
1847;SDS011;924;52.448;13.356;2022-07-23T21:55:31;1.80;;;1.60;;
1847;SDS011;924;52.448;13.356;2022-07-23T21:57:56;1.60;;;1.50;;
1847;SDS011;924;52.448;13.356;2022-07-23T22:00:23;2.20;;;1.53;;
1847;SDS011;924;52.448;13.356;2022-07-23T22:02:50;2.60;;;1.70;;
1847;SDS011;924;52.448;13.356;2022-07-23T22:05:16;3.30;;;1.37;;
1847;SDS011;924;52.448;13.356;2022-07-23T22:07:41;1.90;;;1.60;;
1847;SDS011;924;52.448;13.356;2022-07-23T22:10:06;1.73;;;1.63;;
1847;SDS011;924;52.448;13.356;2022-07-23T22:12:33;2.07;;;1.57;;
1847;SDS011;924;52.448;13.356;2022-07-23T22:14:58;3.20;;;1.60;;
1847;SDS011;924;52.448;13.356;2022-07-23T22:17:24;1.93;;;1.30;;
1847;SDS011;924;52.448;13.356;2022-07-23T22:19:49;2.03;;;1.67;;
1847;SDS011;924;52.448;13.356;2022-07-23T22:22:14;2.23;;;1.47;;
1847;SDS011;924;52.448;13.356;2022-07-23T22:24:39;1.70;;;1.47;;
1847;SDS011;924;52.448;13.356;2022-07-23T22:27:04;1.63;;;1.53;;
1847;SDS011;924;52.448;13.356;2022-07-23T22:29:30;3.37;;;1.70;;
1847;SDS011;924;52.448;13.356;2022-07-23T22:31:55;3.40;;;1.33;;
1847;SDS011;924;52.448;13.356;2022-07-23T22:34:20;1.50;;;1.40;;
1847;SDS011;924;52.448;13.356;2022-07-23T22:36:46;1.70;;;1.57;;
1847;SDS011;924;52.448;13.356;2022-07-23T22:39:11;1.63;;;1.40;;
1847;SDS011;924;52.448;13.356;2022-07-23T22:41:36;1.70;;;1.57;;
1847;SDS011;924;52.448;13.356;2022-07-23T22:44:01;2.90;;;1.60;;
1847;SDS011;924;52.448;13.356;2022-07-23T22:46:27;1.87;;;1.70;;
1847;SDS011;924;52.448;13.356;2022-07-23T22:48:52;3.27;;;2.10;;
1847;SDS011;924;52.448;13.356;2022-07-23T22:51:17;1.70;;;1.60;;
1847;SDS011;924;52.448;13.356;2022-07-23T22:53:42;2.67;;;1.97;;
1847;SDS011;924;52.448;13.356;2022-07-23T22:56:08;1.80;;;1.70;;
1847;SDS011;924;52.448;13.356;2022-07-23T22:58:33;2.17;;;1.73;;
1847;SDS011;924;52.448;13.356;2022-07-23T23:00:58;1.87;;;1.77;;
1847;SDS011;924;52.448;13.356;2022-07-23T23:03:23;3.20;;;2.03;;
1847;SDS011;924;52.448;13.356;2022-07-23T23:05:49;2.20;;;2.00;;
1847;SDS011;924;52.448;13.356;2022-07-23T23:08:14;2.13;;;1.93;;
1847;SDS011;924;52.448;13.356;2022-07-23T23:10:39;2.13;;;1.90;;
1847;SDS011;924;52.448;13.356;2022-07-23T23:13:04;1.73;;;1.47;;
1847;SDS011;924;52.448;13.356;2022-07-23T23:15:30;1.93;;;1.70;;
1847;SDS011;924;52.448;13.356;2022-07-23T23:17:55;2.10;;;1.70;;
1847;SDS011;924;52.448;13.356;2022-07-23T23:20:20;1.90;;;1.47;;
1847;SDS011;924;52.448;13.356;2022-07-23T23:22:46;2.10;;;1.90;;
1847;SDS011;924;52.448;13.356;2022-07-23T23:25:11;1.80;;;1.70;;
1847;SDS011;924;52.448;13.356;2022-07-23T23:27:37;1.77;;;1.67;;
1847;SDS011;924;52.448;13.356;2022-07-23T23:30:02;2.33;;;2.00;;
1847;SDS011;924;52.448;13.356;2022-07-23T23:32:27;2.33;;;1.80;;
1847;SDS011;924;52.448;13.356;2022-07-23T23:34:53;2.97;;;2.10;;
1847;SDS011;924;52.448;13.356;2022-07-23T23:37:18;3.53;;;2.40;;
1847;SDS011;924;52.448;13.356;2022-07-23T23:39:43;4.33;;;2.70;;
1847;SDS011;924;52.448;13.356;2022-07-23T23:42:09;2.70;;;2.50;;
1847;SDS011;924;52.448;13.356;2022-07-23T23:44:34;2.50;;;2.30;;
1847;SDS011;924;52.448;13.356;2022-07-23T23:46:59;2.93;;;2.00;;
1847;SDS011;924;52.448;13.356;2022-07-23T23:49:25;4.30;;;2.30;;
1847;SDS011;924;52.448;13.356;2022-07-23T23:51:50;3.93;;;3.53;;
1847;SDS011;924;52.448;13.356;2022-07-23T23:54:16;3.30;;;3.00;;
1847;SDS011;924;52.448;13.356;2022-07-23T23:56:41;3.00;;;2.70;;
1847;SDS011;924;52.448;13.356;2022-07-23T23:59:07;3.90;;;2.77;;
